Time;durP1;ratioP1;P1;durP2;ratioP2;P2;SDS_P1;SDS_P2;PMS_P1;PMS_P2;Temp;Humidity;BMP_temperature;BMP_pressure;BME280_temperature;BME280_humidity;BME280_pressure;Samples;Min_cycle;Max_cycle;Signal;HPM_P1;HPM_P2
2022/08/18 00:00:15;;;;;;;28.80;24.30;;;;;;;;;;5004233;28;92462;-72
2022/08/18 00:02:45;;;;;;;31.98;26.30;;;;;;;;;;4975475;28;94009;-73
2022/08/18 00:05:26;;;;;;;30.48;26.15;;;;;;;;;;4982700;28;93920;-73
2022/08/18 00:07:56;;;;;;;35.63;26.08;;;;;;;;;;4995781;28;92422;-73
2022/08/18 00:10:22;;;;;;;32.92;26.65;;;;;;;;;;4995277;28;94342;-73
2022/08/18 00:12:48;;;;;;;35.75;27.45;;;;;;;;;;4995894;28;92541;-73
2022/08/18 00:15:16;;;;;;;33.67;26.13;;;;;;;;;;4979871;28;92654;-73
2022/08/18 00:17:42;;;;;;;30.13;25.25;;;;;;;;;;5007682;28;93428;-73
2022/08/18 00:20:12;;;;;;;34.67;26.85;;;;;;;;;;4994069;28;95116;-72
2022/08/18 00:22:41;;;;;;;39.10;30.15;;;;;;;;;;4995211;28;96626;-72
2022/08/18 00:25:08;;;;;;;32.92;27.50;;;;;;;;;;4990835;28;94208;-72
2022/08/18 00:27:36;;;;;;;32.50;25.88;;;;;;;;;;4975806;28;92501;-73
2022/08/18 00:30:04;;;;;;;38.90;27.63;;;;;;;;;;4975916;28;93120;-73
2022/08/18 00:32:32;;;;;;;33.58;27.33;;;;;;;;;;4992295;28;94094;-73
2022/08/18 00:35:05;;;;;;;30.95;26.50;;;;;;;;;;4992658;28;92497;-73
2022/08/18 00:37:32;;;;;;;;;;;;;;;;;;4979354;28;93093;-73
2022/08/18 00:39:58;;;;;;;39.78;29.35;;;;;;;;;;4975531;28;121141;-73
2022/08/18 00:42:27;;;;;;;48.53;31.48;;;;;;;;;;4976001;28;94014;-73
2022/08/18 00:44:57;;;;;;;46.83;34.53;;;;;;;;;;4973485;28;95680;-73
2022/08/18 00:47:27;;;;;;;48.13;32.65;;;;;;;;;;4977434;28;92520;-73
2022/08/18 00:50:13;;;;;;;48.38;33.20;;;;;;;;;;5005918;28;93137;-73
2022/08/18 00:52:42;;;;;;;39.03;32.05;;;;;;;;;;5013820;28;93298;-73
2022/08/18 00:55:08;;;;;;;53.75;34.20;;;;;;;;;;5007785;28;92513;-73
2022/08/18 00:57:35;;;;;;;44.60;30.85;;;;;;;;;;4978473;28;94208;-73
2022/08/18 01:00:14;;;;;;;35.92;29.27;;;;;;;;;;4974784;28;92441;-73
2022/08/18 01:02:49;;;;;;;43.53;31.73;;;;;;;;;;4975389;28;94070;-73
2022/08/18 01:05:21;;;;;;;36.65;29.73;;;;;;;;;;4999828;28;94095;-73
2022/08/18 01:07:47;;;;;;;;;;;;;;;;;;4974115;28;92670;-73
2022/08/18 01:10:15;;;;;;;37.90;30.98;;;;;;;;;;4974794;28;123168;-73
2022/08/18 01:12:43;;;;;;;45.20;31.40;;;;;;;;;;4974913;28;93089;-73
2022/08/18 01:15:13;;;;;;;42.58;30.13;;;;;;;;;;4974568;28;92995;-73
2022/08/18 01:23:29;;;;;;;46.88;31.25;;;;;;;;;;4995421;28;93165;-73
2022/08/18 01:25:58;;;;;;;37.80;28.55;;;;;;;;;;4985154;28;95135;-73
2022/08/18 01:28:33;;;;;;;39.80;31.08;;;;;;;;;;4974872;28;92895;-73
2022/08/18 01:31:00;;;;;;;42.95;30.15;;;;;;;;;;4974869;28;93275;-73
2022/08/18 01:33:31;;;;;;;48.10;34.38;;;;;;;;;;4974606;28;93626;-73
2022/08/18 01:36:18;;;;;;;45.22;33.58;;;;;;;;;;4982690;28;95378;-73
2022/08/18 01:38:45;;;;;;;52.13;35.50;;;;;;;;;;5013961;28;98607;-73
2022/08/18 01:41:12;;;;;;;48.75;32.17;;;;;;;;;;5013672;28;93604;-73
2022/08/18 01:43:54;;;;;;;53.65;35.65;;;;;;;;;;5001493;28;92801;-73
2022/08/18 01:46:22;;;;;;;48.42;34.03;;;;;;;;;;4975043;28;94191;-73
2022/08/18 01:48:48;;;;;;;67.57;39.53;;;;;;;;;;4972692;28;92504;-73
2022/08/18 01:51:16;;;;;;;74.15;41.47;;;;;;;;;;4974793;28;93960;-73
2022/08/18 01:53:43;;;;;;;49.38;32.88;;;;;;;;;;4999964;28;93476;-73
2022/08/18 01:56:10;;;;;;;52.03;34.80;;;;;;;;;;4983431;28;93635;-73
2022/08/18 01:58:36;;;;;;;47.40;32.88;;;;;;;;;;4974402;28;93936;-73
2022/08/18 02:01:03;;;;;;;53.88;34.50;;;;;;;;;;4972685;28;96809;-73
2022/08/18 02:03:31;;;;;;;51.42;36.28;;;;;;;;;;4973736;28;92845;-73
2022/08/18 02:05:59;;;;;;;55.40;35.92;;;;;;;;;;4991735;28;94297;-73
2022/08/18 02:08:26;;;;;;;47.67;33.13;;;;;;;;;;4998651;28;93016;-73
2022/08/18 02:10:54;;;;;;;47.83;32.80;;;;;;;;;;5012896;28;93432;-73
2022/08/18 02:13:20;;;;;;;51.75;34.60;;;;;;;;;;5003183;28;94027;-73
2022/08/18 02:15:46;;;;;;;50.30;35.25;;;;;;;;;;4974488;28;93353;-73
2022/08/18 02:18:17;;;;;;;53.95;33.75;;;;;;;;;;4973785;28;93319;-73
2022/08/18 02:21:09;;;;;;;47.13;32.35;;;;;;;;;;4973937;28;93486;-73
2022/08/18 02:23:35;;;;;;;50.40;34.78;;;;;;;;;;4977577;28;92497;-73
2022/08/18 02:26:03;;;;;;;46.67;33.30;;;;;;;;;;4993912;28;96698;-73
2022/08/18 02:28:30;;;;;;;49.10;35.38;;;;;;;;;;4977019;28;94365;-73
2022/08/18 02:30:56;;;;;;;59.35;35.72;;;;;;;;;;4973212;28;93075;-73
2022/08/18 02:33:22;;;;;;;81.72;43.88;;;;;;;;;;4973833;28;93481;-73
2022/08/18 02:35:55;;;;;;;75.63;40.88;;;;;;;;;;4974134;28;93975;-73
2022/08/18 02:38:21;;;;;;;;;;;;;;;;;;4990040;28;93250;-73
2022/08/18 02:40:53;;;;;;;48.17;31.73;;;;;;;;;;5000927;28;123640;-73
2022/08/18 02:43:19;;;;;;;62.08;39.15;;;;;;;;;;4991520;28;91801;-73
2022/08/18 02:45:45;;;;;;;69.80;38.35;;;;;;;;;;4974808;28;92804;-73
2022/08/18 02:48:12;;;;;;;55.05;34.83;;;;;;;;;;4977144;28;92464;-73
2022/08/18 02:50:47;;;;;;;65.50;39.15;;;;;;;;;;4978588;28;94818;-73
2022/08/18 02:53:23;;;;;;;49.05;33.58;;;;;;;;;;4976521;28;93472;-73
2022/08/18 02:55:50;;;;;;;51.22;32.47;;;;;;;;;;4983009;28;94215;-73
2022/08/18 02:58:19;;;;;;;57.08;35.17;;;;;;;;;;5011493;28;93962;-73
2022/08/18 03:00:46;;;;;;;53.42;33.58;;;;;;;;;;5006529;28;94008;-73
2022/08/18 03:03:12;;;;;;;40.65;30.25;;;;;;;;;;4997005;28;92462;-73
2022/08/18 03:05:39;;;;;;;41.80;29.80;;;;;;;;;;4991362;28;93971;-73
2022/08/18 03:08:05;;;;;;;45.45;29.10;;;;;;;;;;4987543;28;93343;-73
2022/08/18 03:10:31;;;;;;;37.85;27.77;;;;;;;;;;4999977;28;92476;-73
2022/08/18 03:12:59;;;;;;;37.83;26.83;;;;;;;;;;4992238;28;93424;-73
2022/08/18 03:15:26;;;;;;;35.50;27.08;;;;;;;;;;4976184;28;94946;-73
2022/08/18 03:17:53;;;;;;;27.85;24.85;;;;;;;;;;4976305;28;96376;-73
2022/08/18 03:20:19;;;;;;;31.85;24.38;;;;;;;;;;4996534;28;94224;-73
2022/08/18 03:22:57;;;;;;;30.25;23.77;;;;;;;;;;5016063;28;92336;-73
2022/08/18 03:25:23;;;;;;;27.73;22.42;;;;;;;;;;5013709;28;92345;-73
2022/08/18 03:27:49;;;;;;;28.88;23.40;;;;;;;;;;4998781;28;93453;-73
2022/08/18 03:30:16;;;;;;;31.40;23.90;;;;;;;;;;4999454;28;92448;-73
2022/08/18 03:32:42;;;;;;;26.90;22.30;;;;;;;;;;4999337;28;93161;-73
2022/08/18 03:35:13;;;;;;;29.60;22.33;;;;;;;;;;4995515;28;93146;-74
2022/08/18 03:37:39;;;;;;;29.50;21.45;;;;;;;;;;4977066;28;92977;-73
2022/08/18 03:40:06;;;;;;;27.50;20.88;;;;;;;;;;4975069;28;95809;-73
2022/08/18 03:42:32;;;;;;;26.00;20.80;;;;;;;;;;4975845;28;92615;-73
2022/08/18 03:44:59;;;;;;;27.10;22.95;;;;;;;;;;4992451;28;94318;-73
2022/08/18 03:47:38;;;;;;;27.80;20.75;;;;;;;;;;4973407;28;94260;-73
2022/08/18 03:50:05;;;;;;;26.20;20.13;;;;;;;;;;4976550;28;92444;-73
2022/08/18 03:52:31;;;;;;;31.02;21.83;;;;;;;;;;4976714;28;92419;-73
2022/08/18 03:54:58;;;;;;;29.35;21.55;;;;;;;;;;4978526;28;93837;-73
2022/08/18 03:57:31;;;;;;;28.33;21.60;;;;;;;;;;4977118;28;94193;-73
2022/08/18 04:00:04;;;;;;;31.38;21.90;;;;;;;;;;4988397;28;94268;-73
2022/08/18 04:02:31;;;;;;;25.75;21.75;;;;;;;;;;4996768;28;92907;-73
2022/08/18 04:04:57;;;;;;;23.75;21.17;;;;;;;;;;4994150;28;94730;-73
2022/08/18 04:07:23;;;;;;;29.65;22.45;;;;;;;;;;4994661;28;93512;-73
2022/08/18 04:09:50;;;;;;;30.88;24.17;;;;;;;;;;4995163;28;93317;-73
2022/08/18 04:12:16;;;;;;;32.03;25.05;;;;;;;;;;4995636;28;93325;-73
2022/08/18 04:14:46;;;;;;;42.35;25.48;;;;;;;;;;4995719;28;94164;-73
2022/08/18 04:17:13;;;;;;;32.83;24.85;;;;;;;;;;4997647;28;94001;-73
2022/08/18 04:19:39;;;;;;;33.13;24.63;;;;;;;;;;4975852;28;94870;-73
2022/08/18 04:22:05;;;;;;;36.30;27.70;;;;;;;;;;4976296;28;91624;-73
2022/08/18 04:24:33;;;;;;;39.00;27.63;;;;;;;;;;4975169;28;92729;-73
2022/08/18 04:27:01;;;;;;;45.55;29.52;;;;;;;;;;4991417;28;94664;-73
2022/08/18 04:29:28;;;;;;;35.05;28.58;;;;;;;;;;4977589;28;94844;-73
2022/08/18 04:31:54;;;;;;;46.25;32.10;;;;;;;;;;4983945;28;96340;-73
2022/08/18 04:34:21;;;;;;;58.70;35.05;;;;;;;;;;4997702;28;93367;-73
2022/08/18 04:36:50;;;;;;;44.83;29.73;;;;;;;;;;4982146;28;92583;-71
2022/08/18 04:39:16;;;;;;;40.05;29.35;;;;;;;;;;4978509;28;94092;-73
2022/08/18 04:41:43;;;;;;;46.13;31.52;;;;;;;;;;4975443;28;92421;-73
2022/08/18 04:44:10;;;;;;;43.78;29.38;;;;;;;;;;4975195;28;93189;-73
2022/08/18 04:46:39;;;;;;;42.40;29.17;;;;;;;;;;4976291;28;92678;-73
2022/08/18 04:49:06;;;;;;;40.72;27.50;;;;;;;;;;5003665;28;92477;-72
2022/08/18 04:51:33;;;;;;;35.97;25.40;;;;;;;;;;5014555;28;93061;-71
2022/08/18 04:54:22;;;;;;;33.05;25.02;;;;;;;;;;5013581;28;96704;-71
2022/08/18 04:56:48;;;;;;;28.92;24.55;;;;;;;;;;4990598;28;92515;-71
2022/08/18 04:59:15;;;;;;;28.92;22.27;;;;;;;;;;4974522;28;94039;-71
2022/08/18 05:01:44;;;;;;;33.78;23.50;;;;;;;;;;4978248;28;94203;-73
2022/08/18 05:04:13;;;;;;;26.83;18.17;;;;;;;;;;4996299;28;94247;-70
2022/08/18 05:06:40;;;;;;;30.00;19.13;;;;;;;;;;4988712;28;94181;-71
2022/08/18 05:09:07;;;;;;;29.40;22.90;;;;;;;;;;4982766;28;92496;-71
2022/08/18 05:11:34;;;;;;;21.23;17.38;;;;;;;;;;4978197;28;94896;-71
2022/08/18 05:14:02;;;;;;;25.02;20.20;;;;;;;;;;4982734;28;93205;-70
2022/08/18 05:16:34;;;;;;;26.25;21.63;;;;;;;;;;4977927;28;92504;-70
2022/08/18 05:19:08;;;;;;;23.50;16.75;;;;;;;;;;4972908;28;95325;-70
2022/08/18 05:21:35;;;;;;;46.05;19.10;;;;;;;;;;4984414;28;93826;-69
2022/08/18 05:24:03;;;;;;;127.75;21.38;;;;;;;;;;4975049;28;93375;-69
2022/08/18 05:26:30;;;;;;;21.52;18.55;;;;;;;;;;4973971;28;93551;-71
2022/08/18 05:28:57;;;;;;;30.60;19.00;;;;;;;;;;4977437;28;92550;-69
2022/08/18 05:31:44;;;;;;;21.30;17.08;;;;;;;;;;4974747;28;92984;-69
2022/08/18 05:34:10;;;;;;;28.42;17.35;;;;;;;;;;4974130;28;93107;-70
2022/08/18 05:36:52;;;;;;;23.80;19.23;;;;;;;;;;4974147;28;93216;-69
2022/08/18 05:39:24;;;;;;;27.02;17.52;;;;;;;;;;4974971;28;93296;-69
2022/08/18 05:41:57;;;;;;;23.00;18.10;;;;;;;;;;4973512;28;94228;-69
2022/08/18 05:44:26;;;;;;;18.95;16.90;;;;;;;;;;4976453;28;94792;-69
2022/08/18 05:46:57;;;;;;;22.73;16.38;;;;;;;;;;4974261;28;93256;-70
2022/08/18 05:49:25;;;;;;;16.10;14.13;;;;;;;;;;4973898;28;92717;-69
2022/08/18 05:51:53;;;;;;;18.13;15.00;;;;;;;;;;4974513;28;93178;-69
2022/08/18 05:57:14;;;;;;;22.80;15.05;;;;;;;;;;4974720;28;92419;-69
2022/08/18 05:59:42;;;;;;;21.73;15.75;;;;;;;;;;4974289;28;93861;-68
2022/08/18 06:02:19;;;;;;;29.13;17.05;;;;;;;;;;4973542;28;92803;-68
2022/08/18 06:04:45;;;;;;;23.10;16.52;;;;;;;;;;4973605;28;92445;-69
2022/08/18 06:07:15;;;;;;;37.30;16.55;;;;;;;;;;4977283;28;94041;-71
2022/08/18 06:09:46;;;;;;;18.23;15.98;;;;;;;;;;4978846;28;95832;-70
2022/08/18 06:12:19;;;;;;;21.65;15.75;;;;;;;;;;4974444;28;96273;-71
2022/08/18 06:14:46;;;;;;;21.83;15.38;;;;;;;;;;4980458;28;94068;-71
2022/08/18 06:17:35;;;;;;;19.42;13.70;;;;;;;;;;4984766;28;92587;-70
2022/08/18 06:20:22;;;;;;;19.63;14.10;;;;;;;;;;4969516;28;94060;-71
2022/08/18 06:22:58;;;;;;;21.48;14.75;;;;;;;;;;4986974;28;94257;-71
2022/08/18 06:25:33;;;;;;;16.33;13.52;;;;;;;;;;4982803;28;92433;-71
2022/08/18 06:28:06;;;;;;;16.92;12.93;;;;;;;;;;4974519;28;93978;-71
2022/08/18 06:30:49;;;;;;;18.55;11.73;;;;;;;;;;4976488;28;94195;-71
2022/08/18 06:33:41;;;;;;;16.65;10.80;;;;;;;;;;4993666;28;93979;-71
2022/08/18 06:36:29;;;;;;;12.13;10.93;;;;;;;;;;4985586;28;96591;-71
2022/08/18 06:38:56;;;;;;;13.02;10.30;;;;;;;;;;4973801;28;92831;-71
2022/08/18 06:41:32;;;;;;;18.17;11.57;;;;;;;;;;4979781;28;94194;-71
2022/08/18 06:44:16;;;;;;;12.52;11.27;;;;;;;;;;4991375;28;95023;-70
2022/08/18 06:46:42;;;;;;;;;;;;;;;;;;4993867;28;92458;-70
2022/08/18 06:49:10;;;;;;;19.98;11.57;;;;;;;;;;4994632;28;121662;-71
2022/08/18 06:51:37;;;;;;;14.23;10.20;;;;;;;;;;4973313;28;94237;-70
2022/08/18 06:54:18;;;;;;;11.63;10.45;;;;;;;;;;4978054;28;92502;-71
2022/08/18 06:56:47;;;;;;;15.82;8.48;;;;;;;;;;4980048;28;94042;-69
2022/08/18 06:59:14;;;;;;;11.23;9.45;;;;;;;;;;4973359;28;92392;-69
2022/08/18 07:01:42;;;;;;;16.38;9.90;;;;;;;;;;4978850;28;94965;-69
2022/08/18 07:04:08;;;;;;;12.60;8.32;;;;;;;;;;4994395;28;93405;-70
2022/08/18 07:06:35;;;;;;;9.63;8.25;;;;;;;;;;4988305;28;92957;-70
2022/08/18 07:09:18;;;;;;;7.63;6.88;;;;;;;;;;4994779;28;92386;-70
2022/08/18 07:12:01;;;;;;;16.85;8.07;;;;;;;;;;4987688;28;93562;-70
2022/08/18 07:14:27;;;;;;;8.85;7.95;;;;;;;;;;4984035;28;92459;-70
2022/08/18 07:17:07;;;;;;;14.27;7.95;;;;;;;;;;4996711;28;93021;-70
2022/08/18 07:19:34;;;;;;;12.55;7.47;;;;;;;;;;4993043;28;91665;-70
2022/08/18 07:22:10;;;;;;;14.80;7.60;;;;;;;;;;4993954;28;94693;-70
2022/08/18 07:24:37;;;;;;;8.57;7.22;;;;;;;;;;4988016;28;93453;-71
2022/08/18 07:27:08;;;;;;;12.32;7.43;;;;;;;;;;4969792;28;95054;-73
2022/08/18 07:29:37;;;;;;;7.80;6.90;;;;;;;;;;4982301;28;95357;-71
2022/08/18 07:32:14;;;;;;;6.80;6.05;;;;;;;;;;4978200;28;93580;-73
2022/08/18 07:34:53;;;;;;;11.75;6.57;;;;;;;;;;4976427;28;92312;-73
2022/08/18 07:37:23;;;;;;;14.05;7.30;;;;;;;;;;4980625;28;93867;-73
2022/08/18 07:40:00;;;;;;;9.40;6.78;;;;;;;;;;4977619;28;92552;-72
2022/08/18 07:42:29;;;;;;;6.80;6.25;;;;;;;;;;4977319;28;94000;-72
2022/08/18 07:45:18;;;;;;;8.65;6.40;;;;;;;;;;4982299;28;93379;-73
2022/08/18 07:48:07;;;;;;;9.23;7.45;;;;;;;;;;4976346;28;93164;-72
2022/08/18 07:50:59;;;;;;;8.88;6.53;;;;;;;;;;4983694;28;94137;-70
2022/08/18 07:53:35;;;;;;;8.02;6.45;;;;;;;;;;4986034;28;96524;-72
2022/08/18 07:56:21;;;;;;;11.30;6.72;;;;;;;;;;4990692;28;92503;-72
2022/08/18 07:58:55;;;;;;;6.47;5.93;;;;;;;;;;4977316;28;93008;-72
2022/08/18 08:01:24;;;;;;;5.15;4.65;;;;;;;;;;5003272;28;94461;-73
2022/08/18 08:03:56;;;;;;;5.60;4.30;;;;;;;;;;4996880;28;93009;-72
2022/08/18 08:06:29;;;;;;;9.38;4.70;;;;;;;;;;4996534;28;93594;-73
2022/08/18 08:09:14;;;;;;;8.40;4.38;;;;;;;;;;4995430;28;92412;-73
2022/08/18 08:12:07;;;;;;;6.32;4.35;;;;;;;;;;4997035;28;93984;-73
2022/08/18 08:14:40;;;;;;;4.40;4.00;;;;;;;;;;4994490;28;93932;-72
2022/08/18 08:17:12;;;;;;;5.78;4.80;;;;;;;;;;5003399;28;92465;-73
2022/08/18 08:19:44;;;;;;;5.60;4.63;;;;;;;;;;5014931;28;94755;-73
2022/08/18 08:22:36;;;;;;;8.75;5.00;;;;;;;;;;5015982;28;93462;-73
2022/08/18 08:25:02;;;;;;;6.65;4.53;;;;;;;;;;5019823;28;92472;-72
2022/08/18 08:27:31;;;;;;;8.13;4.80;;;;;;;;;;5016603;28;93430;-73
2022/08/18 08:30:08;;;;;;;8.07;4.72;;;;;;;;;;5013694;28;92440;-73
2022/08/18 08:32:47;;;;;;;5.00;3.47;;;;;;;;;;5005424;28;93553;-73
2022/08/18 08:35:18;;;;;;;4.93;3.17;;;;;;;;;;5016391;28;94314;-73
2022/08/18 08:38:12;;;;;;;8.95;3.78;;;;;;;;;;5016294;28;91585;-72
2022/08/18 08:41:02;;;;;;;5.57;4.18;;;;;;;;;;5016013;28;93515;-73
2022/08/18 08:43:34;;;;;;;5.15;3.70;;;;;;;;;;5014346;28;94185;-72
2022/08/18 08:46:05;;;;;;;6.53;3.50;;;;;;;;;;5014751;28;94954;-73
2022/08/18 08:48:33;;;;;;;3.75;3.38;;;;;;;;;;5016239;28;96451;-73
2022/08/18 08:51:05;;;;;;;3.03;2.75;;;;;;;;;;5015340;28;92527;-73
2022/08/18 08:53:44;;;;;;;5.60;3.40;;;;;;;;;;5016130;28;93916;-72
2022/08/18 08:56:15;;;;;;;6.63;3.53;;;;;;;;;;5016517;28;93700;-73
2022/08/18 08:58:44;;;;;;;5.10;3.78;;;;;;;;;;5015127;28;92419;-73
2022/08/18 09:01:21;;;;;;;8.40;3.78;;;;;;;;;;5004203;28;94034;-72
2022/08/18 09:03:51;;;;;;;4.88;3.55;;;;;;;;;;4997160;28;93420;-72
2022/08/18 09:06:31;;;;;;;4.38;3.70;;;;;;;;;;4996126;28;92434;-72
2022/08/18 09:09:04;;;;;;;7.97;4.03;;;;;;;;;;4995841;28;92895;-72
2022/08/18 09:11:42;;;;;;;8.15;3.70;;;;;;;;;;4980255;28;96662;-72
2022/08/18 09:14:36;;;;;;;5.90;3.35;;;;;;;;;;4975944;28;95396;-72
2022/08/18 09:17:22;;;;;;;5.82;3.15;;;;;;;;;;4975842;28;93276;-72
2022/08/18 09:20:17;;;;;;;6.38;3.08;;;;;;;;;;4982816;28;92845;-72
2022/08/18 09:22:52;;;;;;;7.38;3.50;;;;;;;;;;4975520;28;93492;-71
2022/08/18 09:25:30;;;;;;;5.72;3.75;;;;;;;;;;4977248;28;94172;-72
2022/08/18 09:28:10;;;;;;;5.35;3.50;;;;;;;;;;4995401;28;92440;-72
2022/08/18 09:30:44;;;;;;;3.88;3.30;;;;;;;;;;4995821;28;94082;-72
2022/08/18 09:33:18;;;;;;;5.20;3.63;;;;;;;;;;4994777;28;93562;-72
2022/08/18 09:35:58;;;;;;;10.70;3.72;;;;;;;;;;4996546;28;92839;-72
2022/08/18 09:41:33;;;;;;;7.78;3.70;;;;;;;;;;4974987;28;92491;-72
2022/08/18 09:44:09;;;;;;;4.50;3.88;;;;;;;;;;4975446;28;93172;-72
2022/08/18 09:46:52;;;;;;;5.78;3.33;;;;;;;;;;4974876;28;92548;-72
2022/08/18 09:49:22;;;;;;;6.47;3.42;;;;;;;;;;4975299;28;92515;-72
2022/08/18 09:51:49;;;;;;;2.95;2.75;;;;;;;;;;4978208;28;92977;-72
2022/08/18 09:54:21;;;;;;;2.70;2.50;;;;;;;;;;4977359;28;93776;-72
2022/08/18 09:56:50;;;;;;;4.63;2.97;;;;;;;;;;4978627;28;91635;-72
2022/08/18 09:59:33;;;;;;;3.40;3.10;;;;;;;;;;4987063;28;94116;-72
2022/08/18 10:02:07;;;;;;;3.25;2.75;;;;;;;;;;4994583;28;92683;-71
2022/08/18 10:04:49;;;;;;;6.00;2.88;;;;;;;;;;4993513;28;94698;-72
2022/08/18 10:07:39;;;;;;;5.32;2.88;;;;;;;;;;4994936;28;93363;-73
2022/08/18 10:10:20;;;;;;;2.70;2.55;;;;;;;;;;4979904;28;92328;-72
2022/08/18 10:13:17;;;;;;;4.30;3.15;;;;;;;;;;4975767;28;93403;-73
2022/08/18 10:15:50;;;;;;;3.22;2.92;;;;;;;;;;4974310;28;94274;-73
2022/08/18 10:18:34;;;;;;;3.35;3.15;;;;;;;;;;4975525;28;92447;-73
2022/08/18 10:21:13;;;;;;;4.93;3.55;;;;;;;;;;4977879;28;92827;-72
2022/08/18 10:23:44;;;;;;;4.47;3.25;;;;;;;;;;4976636;28;91757;-72
2022/08/18 10:26:31;;;;;;;3.72;3.22;;;;;;;;;;4988709;28;93371;-72
2022/08/18 10:28:59;;;;;;;4.68;3.05;;;;;;;;;;4993609;28;94134;-72
2022/08/18 10:31:26;;;;;;;2.90;2.63;;;;;;;;;;4992975;28;95538;-72
2022/08/18 10:34:01;;;;;;;7.35;2.70;;;;;;;;;;4994366;28;96494;-72
2022/08/18 10:37:10;;;;;;;3.10;2.40;;;;;;;;;;4993325;28;93404;-72
2022/08/18 10:39:46;;;;;;;3.83;3.08;;;;;;;;;;4974242;28;93326;-72
2022/08/18 10:42:30;;;;;;;3.58;2.83;;;;;;;;;;4978345;28;96092;-72
2022/08/18 10:45:11;;;;;;;4.93;2.85;;;;;;;;;;4976338;28;93121;-72
2022/08/18 10:47:41;;;;;;;3.38;2.70;;;;;;;;;;4974460;28;94097;-73
2022/08/18 10:50:21;;;;;;;5.72;2.50;;;;;;;;;;4974124;28;92506;-72
2022/08/18 10:53:00;;;;;;;2.72;2.30;;;;;;;;;;4975244;28;92452;-72
2022/08/18 10:55:50;;;;;;;3.20;2.83;;;;;;;;;;4977515;28;92842;-72
2022/08/18 10:58:35;;;;;;;3.08;2.35;;;;;;;;;;4975385;28;96569;-72
2022/08/18 11:01:14;;;;;;;4.30;2.78;;;;;;;;;;4974697;28;92432;-73
2022/08/18 11:04:00;;;;;;;4.82;2.20;;;;;;;;;;4973950;28;92319;-72
2022/08/18 11:06:41;;;;;;;2.65;2.40;;;;;;;;;;4975746;28;93613;-71
2022/08/18 11:09:08;;;;;;;8.70;3.00;;;;;;;;;;4981914;28;92457;-72
2022/08/18 11:11:42;;;;;;;6.35;2.83;;;;;;;;;;4978390;28;93807;-72
2022/08/18 11:14:39;;;;;;;5.45;2.97;;;;;;;;;;4981331;28;92542;-72
2022/08/18 11:17:08;;;;;;;3.45;2.45;;;;;;;;;;4978360;28;92906;-72
2022/08/18 11:19:39;;;;;;;4.13;2.70;;;;;;;;;;4977253;28;93462;-72
2022/08/18 11:22:27;;;;;;;2.92;2.50;;;;;;;;;;4977591;28;92425;-73
2022/08/18 11:25:19;;;;;;;2.63;2.40;;;;;;;;;;4978115;28;95230;-72
2022/08/18 11:27:46;;;;;;;2.10;1.90;;;;;;;;;;4995141;28;93469;-72
2022/08/18 11:30:13;;;;;;;2.47;2.17;;;;;;;;;;4981422;28;92487;-73
2022/08/18 11:32:43;;;;;;;3.78;2.60;;;;;;;;;;4979633;28;94029;-72
2022/08/18 11:35:19;;;;;;;2.33;2.13;;;;;;;;;;4978473;28;92420;-72
2022/08/18 11:37:47;;;;;;;4.13;2.58;;;;;;;;;;4977266;28;93988;-72
2022/08/18 11:40:22;;;;;;;3.42;2.22;;;;;;;;;;4981640;28;92880;-71
2022/08/18 11:43:12;;;;;;;2.30;2.10;;;;;;;;;;4996443;28;91727;-71
2022/08/18 11:45:44;;;;;;;2.25;1.98;;;;;;;;;;4980587;28;93031;-72
2022/08/18 11:48:13;;;;;;;9.35;2.22;;;;;;;;;;4977053;28;93769;-72
2022/08/18 11:50:47;;;;;;;5.05;2.63;;;;;;;;;;4974664;28;94877;-72
2022/08/18 11:53:32;;;;;;;2.72;2.53;;;;;;;;;;4980791;28;95402;-71
2022/08/18 11:56:20;;;;;;;5.20;1.90;;;;;;;;;;4987393;28;92579;-72
2022/08/18 11:59:00;;;;;;;6.03;2.05;;;;;;;;;;4980749;28;93786;-72
2022/08/18 12:01:33;;;;;;;2.95;2.00;;;;;;;;;;4985324;28;94222;-72
2022/08/18 12:04:13;;;;;;;1.88;1.77;;;;;;;;;;4997357;28;92485;-72
2022/08/18 12:06:54;;;;;;;4.25;2.30;;;;;;;;;;4996860;28;93282;-72
2022/08/18 12:09:31;;;;;;;6.68;2.55;;;;;;;;;;4996675;28;93566;-72
2022/08/18 12:12:21;;;;;;;9.55;2.65;;;;;;;;;;4988547;28;92468;-72
2022/08/18 12:14:50;;;;;;;2.97;2.63;;;;;;;;;;4976065;28;94109;-72
2022/08/18 12:17:17;;;;;;;6.82;2.20;;;;;;;;;;4988087;28;97833;-72
2022/08/18 12:19:43;;;;;;;3.85;2.33;;;;;;;;;;4986743;28;96526;-72
2022/08/18 12:22:16;;;;;;;3.33;2.13;;;;;;;;;;4979988;28;93212;-72
2022/08/18 12:24:44;;;;;;;2.58;1.95;;;;;;;;;;4987294;28;93346;-73
2022/08/18 12:27:14;;;;;;;2.10;1.90;;;;;;;;;;4998016;28;93965;-72
2022/08/18 12:30:01;;;;;;;2.25;1.80;;;;;;;;;;4985117;28;93319;-72
2022/08/18 12:32:29;;;;;;;3.67;1.90;;;;;;;;;;4982798;28;92414;-72
2022/08/18 12:35:16;;;;;;;3.03;1.60;;;;;;;;;;4980477;28;93854;-72
2022/08/18 12:37:47;;;;;;;7.38;1.58;;;;;;;;;;4987016;28;94752;-72
2022/08/18 12:40:34;;;;;;;2.83;1.92;;;;;;;;;;4983753;28;92563;-72
2022/08/18 12:43:00;;;;;;;2.40;2.20;;;;;;;;;;4981630;28;95869;-72
2022/08/18 12:45:27;;;;;;;2.13;1.90;;;;;;;;;;4991947;28;92482;-72
2022/08/18 12:47:54;;;;;;;2.38;1.88;;;;;;;;;;4989962;28;94046;-72
2022/08/18 12:50:20;;;;;;;3.70;2.03;;;;;;;;;;5000271;28;93109;-72
2022/08/18 12:53:00;;;;;;;8.10;2.33;;;;;;;;;;4996108;28;92491;-72
2022/08/18 12:55:30;;;;;;;6.07;2.22;;;;;;;;;;4986286;28;93897;-73
2022/08/18 12:57:57;;;;;;;6.10;2.20;;;;;;;;;;4992832;28;94219;-72
2022/08/18 13:00:23;;;;;;;3.35;2.25;;;;;;;;;;4995547;28;91814;-72
2022/08/18 13:02:55;;;;;;;5.45;2.00;;;;;;;;;;5012520;28;92300;-72
2022/08/18 13:05:22;;;;;;;3.05;2.30;;;;;;;;;;4992055;28;93408;-72
2022/08/18 13:08:00;;;;;;;9.15;2.28;;;;;;;;;;4987060;28;94934;-72
2022/08/18 13:10:29;;;;;;;4.30;1.98;;;;;;;;;;4974803;28;94373;-72
2022/08/18 13:13:11;;;;;;;5.50;2.30;;;;;;;;;;4975798;28;93028;-72
2022/08/18 13:15:38;;;;;;;2.70;2.45;;;;;;;;;;4975701;28;93134;-72
2022/08/18 13:18:10;;;;;;;2.58;2.08;;;;;;;;;;4977399;28;93996;-71
2022/08/18 13:20:41;;;;;;;6.88;2.20;;;;;;;;;;4978882;28;92515;-73
2022/08/18 13:23:10;;;;;;;6.22;1.98;;;;;;;;;;4981101;28;93992;-71
2022/08/18 13:25:37;;;;;;;2.10;2.00;;;;;;;;;;4984018;28;91693;-72
2022/08/18 13:28:05;;;;;;;3.85;2.00;;;;;;;;;;4987024;28;92441;-72
2022/08/18 13:30:31;;;;;;;3.10;2.00;;;;;;;;;;4974920;28;93154;-72
2022/08/18 13:33:01;;;;;;;3.03;2.30;;;;;;;;;;4974610;28;95459;-72
2022/08/18 13:35:48;;;;;;;3.20;2.05;;;;;;;;;;4975441;28;96327;-72
2022/08/18 13:38:22;;;;;;;2.53;2.33;;;;;;;;;;4977116;28;94254;-72
2022/08/18 13:40:54;;;;;;;2.88;1.65;;;;;;;;;;4980261;28;93756;-73
2022/08/18 13:43:24;;;;;;;2.08;1.88;;;;;;;;;;4976313;28;93844;-73
2022/08/18 13:45:52;;;;;;;4.63;1.90;;;;;;;;;;4984507;28;94061;-73
2022/08/18 13:48:22;;;;;;;3.58;1.90;;;;;;;;;;4978794;28;95118;-72
2022/08/18 13:50:49;;;;;;;3.40;2.30;;;;;;;;;;4983236;28;92558;-72
2022/08/18 13:53:18;;;;;;;2.95;2.00;;;;;;;;;;4976058;28;92343;-72
2022/08/18 13:55:45;;;;;;;4.60;2.38;;;;;;;;;;4979540;28;94162;-72
2022/08/18 13:58:11;;;;;;;4.57;2.22;;;;;;;;;;4973485;28;95543;-72
2022/08/18 14:00:46;;;;;;;1.98;1.88;;;;;;;;;;4974798;28;92530;-72
2022/08/18 14:03:14;;;;;;;3.17;2.20;;;;;;;;;;4975639;28;92840;-73
2022/08/18 14:06:01;;;;;;;2.25;2.03;;;;;;;;;;4974633;28;92446;-73
2022/08/18 14:08:32;;;;;;;2.85;2.47;;;;;;;;;;4977944;28;92424;-73
2022/08/18 14:11:00;;;;;;;2.50;2.30;;;;;;;;;;4981495;28;94101;-72
2022/08/18 14:13:27;;;;;;;2.33;2.10;;;;;;;;;;4975416;28;92437;-73
2022/08/18 14:15:54;;;;;;;7.97;2.42;;;;;;;;;;4976379;28;93743;-72
2022/08/18 14:18:25;;;;;;;5.60;2.80;;;;;;;;;;4974122;28;93114;-72
2022/08/18 14:26:47;;;;;;;6.32;2.70;;;;;;;;;;4974391;28;93118;-72
2022/08/18 14:29:16;;;;;;;3.67;2.47;;;;;;;;;;4974462;28;92440;-72
2022/08/18 14:32:03;;;;;;;2.67;2.40;;;;;;;;;;4980348;28;93216;-73
2022/08/18 14:34:30;;;;;;;4.00;2.50;;;;;;;;;;4975636;28;92432;-72
2022/08/18 14:36:57;;;;;;;2.95;2.35;;;;;;;;;;4973774;28;93649;-73
2022/08/18 14:39:24;;;;;;;4.80;2.67;;;;;;;;;;4974697;28;94062;-73
2022/08/18 14:41:51;;;;;;;2.55;2.22;;;;;;;;;;4982019;28;91855;-73
2022/08/18 14:44:21;;;;;;;3.67;2.50;;;;;;;;;;4979004;28;92356;-71
2022/08/18 14:46:50;;;;;;;4.72;2.55;;;;;;;;;;4980104;28;94179;-72
2022/08/18 14:49:20;;;;;;;3.28;2.22;;;;;;;;;;4995509;28;95175;-72
2022/08/18 14:51:56;;;;;;;2.80;2.08;;;;;;;;;;4997445;28;95394;-73
2022/08/18 14:54:23;;;;;;;3.28;2.42;;;;;;;;;;5001196;28;94324;-73
2022/08/18 14:56:54;;;;;;;2.80;2.30;;;;;;;;;;4997170;28;93735;-73
2022/08/18 14:59:22;;;;;;;4.70;2.20;;;;;;;;;;4985564;28;94068;-73
2022/08/18 15:01:48;;;;;;;5.20;2.55;;;;;;;;;;4976637;28;94880;-72
2022/08/18 15:04:16;;;;;;;2.30;2.10;;;;;;;;;;4977244;28;95033;-73
2022/08/18 15:06:45;;;;;;;3.95;2.17;;;;;;;;;;4989933;28;92647;-73
2022/08/18 15:09:28;;;;;;;6.68;2.70;;;;;;;;;;4993341;28;92497;-73
2022/08/18 15:11:57;;;;;;;2.65;2.10;;;;;;;;;;4981299;28;92862;-73
2022/08/18 15:14:29;;;;;;;5.75;2.20;;;;;;;;;;4982951;28;96565;-72
2022/08/18 15:17:02;;;;;;;1.90;1.80;;;;;;;;;;4999638;28;92523;-73
2022/08/18 15:19:40;;;;;;;4.55;2.10;;;;;;;;;;4997327;28;93126;-73